Time;durP1;ratioP1;P1;durP2;ratioP2;P2;SDS_P1;SDS_P2;PMS_P1;PMS_P2;Temp;Humidity;BMP_temperature;BMP_pressure;BME280_temperature;BME280_humidity;BME280_pressure;Samples;Min_cycle;Max_cycle;Signal;HPM_P1;HPM_P2
2024/01/09 00:00:32;;;;;;;17.08;7.15;;;;;;;-6.52;100.00;99772.09;5049893;28;20496;-77
2024/01/09 00:02:57;;;;;;;14.00;6.30;;;;;;;-6.61;100.00;99761.97;5051210;28;20024;-78
2024/01/09 00:05:23;;;;;;;19.33;6.85;;;;;;;-6.67;100.00;99764.91;5056492;28;20538;-77
2024/01/09 00:07:48;;;;;;;20.77;7.97;;;;;;;-6.52;100.00;99764.19;5050102;28;20036;-78
2024/01/09 00:10:13;;;;;;;17.63;6.28;;;;;;;-6.66;100.00;99750.81;5049509;28;20471;-77
2024/01/09 00:12:39;;;;;;;15.15;6.93;;;;;;;-6.62;100.00;99765.53;5053612;28;20178;-77
2024/01/09 00:15:06;;;;;;;20.88;7.18;;;;;;;-6.58;100.00;99777.59;5049289;28;20070;-77
2024/01/09 00:17:32;;;;;;;15.80;6.70;;;;;;;-6.75;100.00;99759.97;5048171;28;20460;-77
2024/01/09 00:19:58;;;;;;;15.73;6.50;;;;;;;-6.71;100.00;99771.22;5052962;28;20024;-77
2024/01/09 00:22:23;;;;;;;19.60;7.32;;;;;;;-6.78;100.00;99754.88;5050158;28;20124;-78
2024/01/09 00:24:48;;;;;;;21.95;7.10;;;;;;;-6.66;100.00;99767.44;5053810;28;20032;-77
2024/01/09 00:27:14;;;;;;;14.35;6.65;;;;;;;-6.82;100.00;99742.75;5051520;28;20082;-77
2024/01/09 00:29:39;;;;;;;17.02;5.97;;;;;;;-6.49;100.00;99768.44;5063486;22;20043;-77
2024/01/09 00:32:04;;;;;;;14.55;6.75;;;;;;;-6.57;100.00;99771.44;5052220;28;20064;-77
2024/01/09 00:34:30;;;;;;;15.70;6.72;;;;;;;-6.58;100.00;99759.19;5048884;28;20034;-77
2024/01/09 00:36:55;;;;;;;15.35;6.63;;;;;;;-6.52;100.00;99772.09;5054051;28;20029;-78
2024/01/09 00:39:20;;;;;;;22.55;7.28;;;;;;;-6.53;100.00;99783.50;5049297;28;20083;-78
2024/01/09 00:41:45;;;;;;;20.50;7.28;;;;;;;-6.58;100.00;99768.88;5051796;28;20335;-78
2024/01/09 00:44:12;;;;;;;15.10;6.38;;;;;;;-6.64;100.00;99767.38;5053883;28;20021;-77
2024/01/09 00:46:37;;;;;;;15.98;6.22;;;;;;;-6.64;100.00;99762.97;5051875;28;20432;-77
2024/01/09 00:49:03;;;;;;;14.45;6.78;;;;;;;-6.76;100.00;99770.56;5053616;28;20025;-78
2024/01/09 00:51:28;;;;;;;18.55;7.47;;;;;;;-6.68;100.00;99777.22;5051011;28;20478;-78
2024/01/09 00:53:55;;;;;;;14.52;6.63;;;;;;;-6.72;100.00;99780.03;5051644;28;20029;-77
2024/01/09 00:56:20;;;;;;;17.77;6.95;;;;;;;-6.90;100.00;99760.69;5052107;28;20150;-77
2024/01/09 00:58:46;;;;;;;17.52;7.35;;;;;;;-6.99;100.00;99758.50;5064811;28;20482;-77
2024/01/09 01:01:11;;;;;;;16.38;6.57;;;;;;;-7.00;100.00;99765.50;5054713;28;20045;-78
2024/01/09 01:03:36;;;;;;;16.73;7.25;;;;;;;-7.00;100.00;99775.16;5051311;28;20021;-77
2024/01/09 01:06:05;;;;;;;18.00;7.38;;;;;;;-7.13;100.00;99764.34;5053106;28;20017;-77
2024/01/09 01:08:30;;;;;;;20.67;7.90;;;;;;;-7.07;100.00;99766.72;5047302;28;20110;-78
2024/01/09 01:10:56;;;;;;;14.60;7.07;;;;;;;-7.06;100.00;99776.31;5054029;28;20037;-77
2024/01/09 01:13:21;;;;;;;18.13;7.35;;;;;;;-7.23;100.00;99777.06;5053921;28;20111;-77
2024/01/09 01:15:46;;;;;;;18.58;7.93;;;;;;;-7.18;100.00;99774.22;5055291;28;20036;-77
2024/01/09 01:18:13;;;;;;;20.15;7.70;;;;;;;-7.21;100.00;99763.84;5068614;28;20355;-78
2024/01/09 01:20:38;;;;;;;19.45;8.00;;;;;;;-7.15;100.00;99774.06;5072334;28;20033;-78
2024/01/09 01:23:03;;;;;;;19.80;7.60;;;;;;;-7.17;100.00;99768.03;5073273;28;20021;-78
2024/01/09 01:25:28;;;;;;;21.95;7.40;;;;;;;-7.22;100.00;99777.91;5071626;28;20028;-78
2024/01/09 01:27:54;;;;;;;17.08;7.30;;;;;;;-7.16;100.00;99786.38;5073310;28;20025;-77
2024/01/09 01:30:19;;;;;;;20.00;7.35;;;;;;;-7.19;100.00;99775.16;5068218;28;20023;-78
2024/01/09 01:32:44;;;;;;;20.33;7.75;;;;;;;-7.10;100.00;99783.50;5074572;28;20033;-77
2024/01/09 01:35:10;;;;;;;19.88;7.93;;;;;;;-7.02;100.00;99788.41;5074262;28;20021;-78
2024/01/09 01:37:35;;;;;;;18.00;7.15;;;;;;;-7.11;100.00;99788.81;5069082;28;20088;-78
2024/01/09 01:40:00;;;;;;;17.13;6.50;;;;;;;-7.14;100.00;99781.91;5061673;28;20017;-78
2024/01/09 01:42:25;;;;;;;15.23;6.00;;;;;;;-7.12;100.00;99792.38;5058890;28;20025;-76
2024/01/09 01:44:51;;;;;;;18.58;6.85;;;;;;;-7.12;100.00;99774.81;5053757;28;20025;-77
2024/01/09 01:47:18;;;;;;;13.82;6.03;;;;;;;-6.96;100.00;99792.53;5055355;28;20036;-77
2024/01/09 01:49:44;;;;;;;16.92;7.00;;;;;;;-6.96;100.00;99793.38;5052107;28;20124;-77
2024/01/09 01:52:11;;;;;;;16.88;6.43;;;;;;;-6.98;100.00;99776.81;5055043;28;20056;-77
2024/01/09 01:54:39;;;;;;;18.13;6.95;;;;;;;-6.98;100.00;99794.38;5051714;28;20025;-77
2024/01/09 01:57:05;;;;;;;15.80;6.85;;;;;;;-7.09;100.00;99785.19;5052409;28;20116;-77
2024/01/09 01:59:34;;;;;;;16.38;6.35;;;;;;;-7.09;100.00;99765.94;5051233;28;20128;-78
2024/01/09 02:02:02;;;;;;;17.20;6.75;;;;;;;-6.93;100.00;99797.66;5056288;28;20021;-78
2024/01/09 02:04:28;;;;;;;17.17;6.63;;;;;;;-7.03;100.00;99770.91;5050514;28;20498;-77
2024/01/09 02:06:53;;;;;;;15.38;6.88;;;;;;;-7.06;100.00;99765.78;5050317;28;20025;-77
2024/01/09 02:09:19;;;;;;;16.40;6.47;;;;;;;-6.96;100.00;99774.13;5047180;28;20036;-77
2024/01/09 02:11:48;;;;;;;16.38;6.78;;;;;;;-6.99;100.00;99780.38;5051814;28;20056;-77
2024/01/09 02:14:13;;;;;;;13.48;5.88;;;;;;;-6.92;100.00;99783.56;5052162;28;20029;-77
2024/01/09 02:16:39;;;;;;;19.42;6.85;;;;;;;-7.01;100.00;99789.25;5048637;28;20070;-77
2024/01/09 02:19:04;;;;;;;17.38;7.25;;;;;;;-7.06;100.00;99778.94;5049773;28;20509;-77
2024/01/09 02:21:29;;;;;;;12.02;5.63;;;;;;;-7.00;100.00;99790.94;5048477;28;20028;-77
2024/01/09 02:23:54;;;;;;;18.05;6.35;;;;;;;-7.10;100.00;99764.19;5050182;28;20041;-77
2024/01/09 02:26:24;;;;;;;20.45;7.03;;;;;;;-6.98;100.00;99786.47;5051742;28;20110;-77
2024/01/09 02:28:54;;;;;;;15.00;6.38;;;;;;;-7.08;100.00;99775.50;5051520;28;20025;-77
2024/01/09 02:31:19;;;;;;;17.27;6.55;;;;;;;-7.12;100.00;99774.81;5051928;28;20186;-78
2024/01/09 02:33:46;;;;;;;17.52;6.65;;;;;;;-7.07;100.00;99777.25;5069202;28;20039;-78
2024/01/09 02:36:12;;;;;;;18.02;7.28;;;;;;;-7.04;100.00;99776.25;5044005;28;20026;-77
2024/01/09 02:38:38;;;;;;;17.17;7.25;;;;;;;-6.98;100.00;99786.47;5049630;28;20028;-78
2024/01/09 02:41:04;;;;;;;14.23;6.18;;;;;;;-7.09;100.00;99771.19;5053474;28;20104;-77
2024/01/09 02:43:29;;;;;;;16.98;6.68;;;;;;;-7.09;100.00;99772.03;5052341;28;20504;-78
2024/01/09 02:45:55;;;;;;;15.15;6.40;;;;;;;-7.01;100.00;99758.53;5052449;28;20017;-78
2024/01/09 02:48:20;;;;;;;19.52;6.43;;;;;;;-7.08;100.00;99768.47;5051724;28;20433;-78
2024/01/09 02:50:45;;;;;;;20.13;6.97;;;;;;;-7.09;100.00;99764.16;5047921;28;20017;-77
2024/01/09 02:53:10;;;;;;;15.43;6.60;;;;;;;-7.07;100.00;99764.09;5050206;28;20024;-78
2024/01/09 02:55:36;;;;;;;16.83;6.55;;;;;;;-6.98;100.00;99773.34;5053269;28;20104;-77
2024/01/09 02:58:01;;;;;;;18.13;7.43;;;;;;;-7.11;100.00;99758.09;5055195;28;20051;-77
2024/01/09 03:00:26;;;;;;;12.63;5.78;;;;;;;-7.01;100.00;99749.81;5054768;28;20442;-77
2024/01/09 03:02:51;;;;;;;15.93;5.70;;;;;;;-6.99;100.00;99766.38;5055334;28;20021;-77
2024/01/09 03:05:18;;;;;;;15.05;5.95;;;;;;;-7.03;100.00;99757.75;5050015;28;20541;-77
2024/01/09 03:07:43;;;;;;;18.38;5.80;;;;;;;-7.05;100.00;99775.38;5053494;28;20021;-77
2024/01/09 03:10:09;;;;;;;17.38;6.13;;;;;;;-6.97;100.00;99775.88;5044668;28;20025;-77
2024/01/09 03:12:34;;;;;;;18.38;6.55;;;;;;;-7.14;100.00;99757.38;5052802;28;20528;-77
2024/01/09 03:14:59;;;;;;;15.30;5.65;;;;;;;-7.02;100.00;99772.63;5053388;28;20031;-77
2024/01/09 03:17:24;;;;;;;15.70;6.50;;;;;;;-7.13;100.00;99751.19;5050498;28;20083;-77
2024/01/09 03:19:50;;;;;;;15.68;6.40;;;;;;;-7.05;100.00;99762.22;5055868;28;20033;-78
2024/01/09 03:22:16;;;;;;;16.88;6.15;;;;;;;-7.14;100.00;99745.09;5055473;28;20362;-78
2024/01/09 03:24:41;;;;;;;19.45;6.85;;;;;;;-7.05;100.00;99733.28;5056680;28;20028;-77
2024/01/09 03:27:06;;;;;;;20.58;6.75;;;;;;;-7.11;100.00;99747.56;5064968;28;20092;-77
2024/01/09 03:29:31;;;;;;;17.17;6.85;;;;;;;-7.06;100.00;99771.03;5060009;28;20029;-78
2024/01/09 03:31:57;;;;;;;16.67;6.00;;;;;;;-7.21;100.00;99751.53;5056084;28;20036;-78
2024/01/09 03:34:22;;;;;;;12.80;5.88;;;;;;;-7.19;100.00;99767.25;5073492;28;20052;-78
2024/01/09 03:36:47;;;;;;;17.65;6.70;;;;;;;-7.28;100.00;99769.38;5074539;28;20059;-78
2024/01/09 03:39:14;;;;;;;17.88;5.95;;;;;;;-7.48;100.00;99742.25;5068752;28;20057;-77
2024/01/09 03:41:41;;;;;;;15.45;6.22;;;;;;;-7.34;100.00;99780.13;5054951;28;20021;-77
2024/01/09 03:44:07;;;;;;;12.57;5.90;;;;;;;-7.35;100.00;99767.91;5054654;28;20025;-77
2024/01/09 03:46:32;;;;;;;17.98;6.10;;;;;;;-7.45;100.00;99763.97;5056036;28;20028;-77
2024/01/09 03:48:57;;;;;;;13.98;5.75;;;;;;;-7.56;100.00;99769.69;5055205;28;20028;-77
2024/01/09 03:51:23;;;;;;;18.77;6.40;;;;;;;-7.72;100.00;99760.78;5047915;28;20109;-78
2024/01/09 03:53:48;;;;;;;16.02;6.53;;;;;;;-7.63;100.00;99777.91;5052922;28;20028;-77
2024/01/09 03:56:14;;;;;;;17.98;6.43;;;;;;;-7.81;100.00;99755.88;5048696;28;20072;-77
2024/01/09 03:58:39;;;;;;;21.38;7.30;;;;;;;-7.69;100.00;99780.81;5052533;28;20025;-77
2024/01/09 04:01:04;;;;;;;17.95;6.80;;;;;;;-7.87;100.00;99772.75;5046632;28;20525;-77
2024/01/09 04:03:30;;;;;;;21.65;7.32;;;;;;;-8.04;100.00;99764.72;5052516;28;20036;-76
2024/01/09 04:05:55;;;;;;;23.70;7.65;;;;;;;-8.23;100.00;99743.63;5053633;28;20017;-77
2024/01/09 04:08:20;;;;;;;14.95;7.22;;;;;;;-8.24;100.00;99760.28;5054089;28;20455;-77
2024/01/09 04:10:45;;;;;;;18.33;6.95;;;;;;;-8.20;100.00;99781.13;5053686;28;20024;-77
2024/01/09 04:13:11;;;;;;;23.27;8.10;;;;;;;-8.40;100.00;99752.22;5062577;28;20406;-77
2024/01/09 04:15:36;;;;;;;20.50;7.43;;;;;;;-8.41;100.00;99769.72;5049696;28;20075;-77
2024/01/09 04:18:02;;;;;;;20.52;6.97;;;;;;;-8.45;100.00;99767.28;5051954;28;20043;-77
2024/01/09 04:20:28;;;;;;;22.02;7.40;;;;;;;-8.45;100.00;99780.41;5055477;28;20029;-77
2024/01/09 04:22:53;;;;;;;19.05;7.20;;;;;;;-8.45;100.00;99776.00;5048533;28;20025;-77
2024/01/09 04:25:19;;;;;;;21.38;8.55;;;;;;;-8.51;100.00;99770.16;5053180;28;20022;-80
2024/01/09 04:30:40;;;;;;;17.38;7.20;;;;;;;-8.41;100.00;99788.09;5054316;22;20049;-59
2024/01/09 04:33:05;;;;;;;17.38;7.53;;;;;;;-8.33;100.00;99779.00;5048445;28;20133;-59
2024/01/09 04:35:30;;;;;;;22.25;7.03;;;;;;;-8.28;100.00;99792.81;5050985;28;20021;-59
2024/01/09 04:37:56;;;;;;;21.55;8.05;;;;;;;-8.25;100.00;99784.81;5053228;28;20090;-59
2024/01/09 04:40:21;;;;;;;16.77;6.75;;;;;;;-8.29;100.00;99785.88;5049051;28;20037;-60
2024/01/09 04:42:46;;;;;;;18.77;8.07;;;;;;;-8.32;100.00;99792.09;5052165;28;20045;-60
2024/01/09 04:45:12;;;;;;;22.70;8.18;;;;;;;-8.40;100.00;99791.56;5055217;28;20039;-60
2024/01/09 04:47:37;;;;;;;24.55;6.95;;;;;;;-8.38;100.00;99782.69;5052545;28;20033;-60
2024/01/09 04:50:03;;;;;;;21.35;8.00;;;;;;;-8.42;100.00;99775.03;5040315;28;20414;-59
2024/01/09 04:52:28;;;;;;;17.50;7.25;;;;;;;-8.45;100.00;99773.38;5048068;28;20033;-59
2024/01/09 04:54:54;;;;;;;17.63;6.68;;;;;;;-8.37;100.00;99787.00;5054319;28;20043;-59
2024/01/09 04:57:19;;;;;;;21.00;7.65;;;;;;;-8.33;100.00;99779.91;5050899;28;20033;-59
2024/01/09 04:59:44;;;;;;;17.08;7.03;;;;;;;-8.36;100.00;99774.75;5043237;28;20033;-56
2024/01/09 05:02:10;;;;;;;23.30;7.28;;;;;;;-8.36;100.00;99780.00;5047412;28;20044;-58
2024/01/09 05:04:35;;;;;;;18.58;7.05;;;;;;;-8.35;100.00;99786.97;5051975;28;20503;-60
2024/01/09 05:07:01;;;;;;;19.02;7.63;;;;;;;-8.24;100.00;99791.78;5050393;28;20083;-59
2024/01/09 05:09:27;;;;;;;21.48;7.70;;;;;;;-8.30;100.00;99769.28;5048186;28;20040;-59
2024/01/09 05:11:53;;;;;;;18.52;6.55;;;;;;;-8.24;100.00;99782.13;5053068;28;20071;-59
2024/01/09 05:14:19;;;;;;;20.30;6.10;;;;;;;-8.22;100.00;99782.94;5052305;28;20033;-59
2024/01/09 05:16:44;;;;;;;18.02;7.55;;;;;;;-8.24;100.00;99779.50;5049269;28;20082;-58
2024/01/09 05:19:09;;;;;;;23.98;7.20;;;;;;;-8.26;100.00;99776.09;5049898;28;20025;-60
2024/01/09 05:21:35;;;;;;;17.00;7.00;;;;;;;-8.28;100.00;99777.06;5046349;28;20029;-59
2024/01/09 05:24:00;;;;;;;20.77;8.05;;;;;;;-8.28;100.00;99782.31;5048638;28;20025;-60
2024/01/09 05:26:41;;;;;;;22.48;7.20;;;;;;;-8.26;100.00;99770.84;5046121;28;20481;-59
2024/01/09 05:29:09;;;;;;;19.60;7.88;;;;;;;-8.23;100.00;99785.59;5043413;28;20168;-59
2024/01/09 05:31:41;;;;;;;20.27;6.90;;;;;;;-8.21;100.00;99779.38;5052799;28;20072;-59
2024/01/09 05:34:10;;;;;;;20.88;7.65;;;;;;;-8.30;100.00;99781.53;5046358;28;20086;-59
2024/01/09 05:36:35;;;;;;;21.42;8.18;;;;;;;-8.17;100.00;99788.88;5056677;28;20025;-59
2024/01/09 05:39:00;;;;;;;19.67;6.60;;;;;;;-8.21;100.00;99782.00;5045720;28;20017;-59
2024/01/09 05:41:26;;;;;;;18.83;8.25;;;;;;;-8.23;100.00;99793.50;5049947;28;20021;-60
2024/01/09 05:43:51;;;;;;;16.60;6.85;;;;;;;-8.21;100.00;99781.16;5047998;28;20499;-60
2024/01/09 05:46:17;;;;;;;18.60;7.00;;;;;;;-8.17;100.00;99785.38;5048206;28;20044;-59
2024/01/09 05:48:44;;;;;;;21.30;6.63;;;;;;;-8.18;100.00;99784.50;5051594;28;20171;-59
2024/01/09 05:51:10;;;;;;;23.17;7.95;;;;;;;-8.25;100.00;99777.81;5046202;28;20025;-60
2024/01/09 05:53:36;;;;;;;27.77;10.68;;;;;;;-8.23;100.00;99785.59;5057472;28;22499;-59
2024/01/09 05:56:03;;;;;;;19.77;8.18;;;;;;;-8.23;100.00;99786.47;5049098;28;20039;-58
2024/01/09 05:58:30;;;;;;;18.77;7.78;;;;;;;-8.28;100.00;99790.19;5044438;28;20833;-59
2024/01/09 06:00:55;;;;;;;20.77;7.63;;;;;;;-8.23;100.00;99781.22;5044113;28;20037;-59
2024/01/09 06:03:20;;;;;;;21.98;6.80;;;;;;;-8.18;100.00;99788.91;5050125;28;20029;-59
2024/01/09 06:05:46;;;;;;;17.58;7.07;;;;;;;-8.15;100.00;99791.41;5052230;28;20020;-59
2024/01/09 06:08:11;;;;;;;19.52;6.63;;;;;;;-8.11;100.00;99784.28;5045611;28;20032;-59
2024/01/09 06:10:38;;;;;;;21.23;7.35;;;;;;;-8.12;100.00;99793.06;5046942;28;20033;-60
2024/01/09 06:13:03;;;;;;;18.90;6.07;;;;;;;-8.14;100.00;99790.50;5051634;28;20037;-59
2024/01/09 06:15:31;;;;;;;19.98;6.55;;;;;;;-8.14;100.00;99805.41;5048210;28;20060;-59
2024/01/09 06:17:56;;;;;;;17.17;6.22;;;;;;;-8.16;100.00;99805.47;5045958;28;20090;-59
2024/01/09 06:20:22;;;;;;;17.92;6.95;;;;;;;-8.16;100.00;99792.34;5043640;28;20479;-59
2024/01/09 06:22:47;;;;;;;24.88;8.23;;;;;;;-8.30;100.00;99782.38;5047047;28;20021;-57
2024/01/09 06:25:13;;;;;;;15.00;5.82;;;;;;;-8.22;100.00;99796.06;5039873;28;20045;-57
2024/01/09 06:27:39;;;;;;;17.90;5.80;;;;;;;-8.14;100.00;99789.66;5050468;28;20117;-58
2024/01/09 06:30:12;;;;;;;13.77;6.95;;;;;;;-8.22;100.00;99800.47;5136143;22;20052;-54
2024/01/09 06:32:37;;;;;;;19.85;6.70;;;;;;;-8.23;100.00;99794.34;5032578;28;20060;-55
2024/01/09 06:35:02;;;;;;;20.23;7.05;;;;;;;-8.26;100.00;99797.09;5060014;28;20098;-55
2024/01/09 06:37:28;;;;;;;16.15;7.25;;;;;;;-8.30;100.00;99789.41;5075060;28;20040;-55
2024/01/09 06:39:53;;;;;;;20.92;7.75;;;;;;;-8.34;100.00;99798.31;5063229;28;20098;-59
2024/01/09 06:42:18;;;;;;;19.02;7.47;;;;;;;-8.38;100.00;99806.31;5070789;28;20083;-55
2024/01/09 06:44:44;;;;;;;20.15;7.72;;;;;;;-8.38;100.00;99805.47;5073367;28;20041;-55
2024/01/09 06:47:09;;;;;;;22.00;9.30;;;;;;;-8.42;100.00;99801.25;5073617;28;20036;-55
2024/01/09 06:49:35;;;;;;;22.13;9.10;;;;;;;-8.42;100.00;99794.25;5050786;28;20119;-55
2024/01/09 06:52:00;;;;;;;20.48;7.97;;;;;;;-8.37;100.00;99799.28;5065548;28;20056;-55
2024/01/09 06:54:26;;;;;;;16.58;6.85;;;;;;;-8.30;100.00;99810.41;5062712;28;20043;-55
2024/01/09 06:56:51;;;;;;;15.80;6.40;;;;;;;-8.26;100.00;99812.84;5069876;28;20090;-55
2024/01/09 06:59:17;;;;;;;18.38;6.55;;;;;;;-8.16;100.00;99811.56;5066245;28;20033;-55
2024/01/09 07:01:42;;;;;;;15.68;6.65;;;;;;;-8.22;100.00;99805.72;5065651;28;20147;-55
2024/01/09 07:04:08;;;;;;;19.40;7.38;;;;;;;-8.17;100.00;99807.25;5076130;28;20025;-55
2024/01/09 07:06:34;;;;;;;18.48;7.60;;;;;;;-8.23;100.00;99817.09;5065858;28;20425;-55
2024/01/09 07:08:59;;;;;;;19.02;6.07;;;;;;;-8.10;100.00;99812.22;5066544;28;20063;-56
2024/01/09 07:11:25;;;;;;;23.30;6.80;;;;;;;-8.07;100.00;99812.09;5063467;28;20037;-55
2024/01/09 07:13:50;;;;;;;18.38;6.90;;;;;;;-8.10;100.00;99818.34;5065242;28;20033;-56
2024/01/09 07:16:15;;;;;;;15.15;6.18;;;;;;;-8.11;100.00;99810.53;5067363;28;20059;-56
2024/01/09 07:18:41;;;;;;;19.63;7.15;;;;;;;-8.13;100.00;99815.00;5052573;28;20111;-58
2024/01/09 07:21:06;;;;;;;18.17;6.65;;;;;;;-8.13;100.00;99815.84;5061416;28;20036;-56
2024/01/09 07:23:32;;;;;;;17.17;7.18;;;;;;;-8.19;100.00;99823.97;5066128;28;20039;-56
2024/01/09 07:25:58;;;;;;;22.42;7.38;;;;;;;-8.15;100.00;99825.53;5064505;28;20027;-56
2024/01/09 07:28:24;;;;;;;16.13;6.35;;;;;;;-8.03;100.00;99824.22;5062517;28;20102;-57
2024/01/09 07:30:52;;;;;;;22.13;7.35;;;;;;;-7.91;100.00;99828.09;5062487;28;20468;-56
2024/01/09 07:33:17;;;;;;;21.75;8.18;;;;;;;-7.94;100.00;99800.19;5065106;28;20046;-56
2024/01/09 07:35:43;;;;;;;18.25;6.80;;;;;;;-7.72;100.00;99823.81;5061931;28;20449;-56
2024/01/09 07:38:08;;;;;;;22.38;7.38;;;;;;;-7.63;100.00;99823.44;5064414;28;20075;-55
2024/01/09 07:40:33;;;;;;;14.43;6.63;;;;;;;-7.61;100.00;99820.75;5049025;28;20025;-56
2024/01/09 07:42:59;;;;;;;19.27;7.95;;;;;;;-7.59;100.00;99816.28;5046771;28;20043;-55
2024/01/09 07:45:29;;;;;;;23.77;7.90;;;;;;;-7.46;100.00;99814.84;5068443;28;20024;-56
2024/01/09 07:47:55;;;;;;;22.13;8.55;;;;;;;-7.39;100.00;99828.56;5069535;28;20559;-54
2024/01/09 07:50:21;;;;;;;49.70;11.38;;;;;;;-7.28;100.00;99814.06;5069673;28;20059;-56
2024/01/09 07:52:47;;;;;;;38.25;11.05;;;;;;;-7.19;100.00;99825.94;5073512;28;20134;-55
2024/01/09 07:55:13;;;;;;;84.55;19.10;;;;;;;-7.12;100.00;99829.19;5066686;28;20086;-56
2024/01/09 07:57:38;;;;;;;128.45;27.23;;;;;;;-6.98;100.00;99836.47;5069450;28;20029;-56
2024/01/09 08:00:04;;;;;;;164.05;34.70;;;;;;;-6.90;100.00;99837.81;5064170;28;20036;-56
2024/01/09 08:02:29;;;;;;;103.35;24.27;;;;;;;-6.79;100.00;99825.97;5068115;28;20122;-56
2024/01/09 08:04:55;;;;;;;134.00;27.10;;;;;;;-6.65;100.00;99845.47;5069691;28;20472;-57
2024/01/09 08:07:20;;;;;;;86.63;22.63;;;;;;;-6.55;100.00;99829.25;5074122;28;20043;-56
2024/01/09 08:09:46;;;;;;;68.00;17.20;;;;;;;-6.47;100.00;99841.16;5070040;28;20028;-55
2024/01/09 08:12:12;;;;;;;26.83;7.72;;;;;;;-6.30;100.00;99839.53;5072302;28;20051;-56
2024/01/09 08:14:37;;;;;;;32.38;9.27;;;;;;;-6.15;100.00;99833.53;5072857;28;20024;-56
2024/01/09 08:17:03;;;;;;;28.35;8.63;;;;;;;-6.08;100.00;99832.31;5071131;28;20028;-56
2024/01/09 08:19:28;;;;;;;17.13;7.13;;;;;;;-5.89;100.00;99828.78;5065792;28;20475;-56
2024/01/09 08:21:54;;;;;;;24.95;7.65;;;;;;;-5.80;100.00;99830.94;5067324;28;20036;-56
2024/01/09 08:24:19;;;;;;;13.90;5.80;;;;;;;-5.67;100.00;99826.78;5069420;28;20025;-55
2024/01/09 08:26:49;;;;;;;15.05;5.53;;;;;;;-5.53;100.00;99832.25;5064339;28;20028;-55
2024/01/09 08:29:16;;;;;;;64.13;19.08;;;;;;;-5.36;100.00;99827.91;5070069;28;20032;-56
2024/01/09 08:31:48;;;;;;;52.70;21.00;;;;;;;-5.29;100.00;99829.31;5067421;28;20032;-56
2024/01/09 08:34:14;;;;;;;33.45;12.02;;;;;;;-5.23;100.00;99823.69;5074152;28;20073;-56
2024/01/09 08:36:42;;;;;;;17.13;7.60;;;;;;;-5.02;100.00;99842.84;5069890;28;20036;-56
2024/01/09 08:39:10;;;;;;;21.75;7.07;;;;;;;-4.86;100.00;99842.91;5057348;28;20071;-56
2024/01/09 08:41:35;;;;;;;29.88;10.43;;;;;;;-4.74;100.00;99841.41;5076471;28;20055;-56
2024/01/09 08:44:01;;;;;;;22.52;8.93;;;;;;;-4.60;100.00;99838.03;5070935;28;20020;-56
2024/01/09 08:46:26;;;;;;;19.95;7.03;;;;;;;-4.45;100.00;99843.34;5072154;28;20499;-63
2024/01/09 08:48:52;;;;;;;13.25;7.55;;;;;;;-4.37;100.00;99842.94;5074908;28;20093;-56
2024/01/09 08:51:18;;;;;;;17.52;6.30;;;;;;;-4.31;100.00;99837.31;5072702;28;20036;-56
2024/01/09 08:53:43;;;;;;;16.83;6.57;;;;;;;-4.21;100.00;99835.03;5074353;28;20048;-56
2024/01/09 08:56:09;;;;;;;15.82;6.20;;;;;;;-4.10;100.00;99831.78;5070782;28;20036;-56
2024/01/09 08:58:35;;;;;;;20.35;7.07;;;;;;;-3.71;100.00;99838.41;5074235;28;20028;-56
2024/01/09 09:01:00;;;;;;;16.38;6.00;;;;;;;-2.90;100.00;99825.69;5068690;28;20505;-60
2024/01/09 09:03:26;;;;;;;15.43;6.38;;;;;;;-0.80;100.00;99830.66;5072347;28;20047;-56
2024/01/09 09:05:51;;;;;;;17.70;6.22;;;;;;;1.44;83.70;99823.97;5065328;28;20032;-60
2024/01/09 09:08:18;;;;;;;15.70;6.80;;;;;;;2.56;74.05;99813.13;5046257;28;20032;-56
2024/01/09 09:10:43;;;;;;;16.25;7.50;;;;;;;4.19;65.62;99809.78;5063059;28;20059;-56
2024/01/09 09:13:09;;;;;;;17.58;7.15;;;;;;;5.12;61.13;99821.00;5064771;28;20451;-57
2024/01/09 09:15:35;;;;;;;18.92;9.40;;;;;;;4.94;57.83;99815.50;5064391;28;20036;-57
2024/01/09 09:18:00;;;;;;;19.30;8.75;;;;;;;5.53;58.42;99809.03;5068046;28;20452;-58
2024/01/09 09:20:26;;;;;;;19.88;8.00;;;;;;;6.22;54.78;99807.75;5043893;28;20067;-62
2024/01/09 09:22:51;;;;;;;17.80;8.20;;;;;;;6.99;51.89;99802.78;5073109;28;20038;-61
2024/01/09 09:25:17;;;;;;;18.23;9.25;;;;;;;6.66;50.36;99804.34;5076822;28;20020;-61
2024/01/09 09:27:42;;;;;;;17.08;10.00;;;;;;;6.68;51.38;99803.19;5066555;28;20107;-61
2024/01/09 09:30:10;;;;;;;14.75;7.95;;;;;;;7.78;48.83;99800.94;5067250;28;20086;-59
2024/01/09 09:32:36;;;;;;;16.38;8.73;;;;;;;7.17;48.06;99787.44;5084103;22;20123;-78
2024/01/09 09:35:01;;;;;;;16.55;7.93;;;;;;;7.14;47.82;99803.91;5033797;28;20030;-83
2024/01/09 09:37:26;;;;;;;18.85;9.02;;;;;;;6.67;47.98;99793.41;5011743;28;20021;-82
2024/01/09 09:39:52;;;;;;;16.23;9.15;;;;;;;7.23;47.89;99804.81;5011959;28;20100;-78
2024/01/09 09:42:20;;;;;;;17.88;8.65;;;;;;;8.50;46.70;99796.84;4996807;28;20076;-80
2024/01/09 09:44:51;;;;;;;17.13;8.13;;;;;;;9.14;44.38;99791.66;5004720;28;20064;-79
2024/01/09 09:47:18;;;;;;;14.10;7.60;;;;;;;8.15;44.11;99781.72;4998579;28;20036;-80
2024/01/09 09:49:45;;;;;;;14.63;8.90;;;;;;;7.88;45.30;99802.50;5006153;28;20018;-81
2024/01/09 09:52:11;;;;;;;18.55;8.18;;;;;;;8.23;43.65;99770.13;5001597;28;20471;-82
2024/01/09 09:54:38;;;;;;;17.15;8.40;;;;;;;7.83;44.09;99783.31;5011658;28;20029;-76
2024/01/09 09:57:04;;;;;;;16.38;7.80;;;;;;;7.32;44.96;99800.34;5016125;28;20052;-83
2024/01/09 09:59:29;;;;;;;17.60;8.70;;;;;;;6.69;44.93;99769.91;5008830;28;20017;-83
2024/01/09 10:01:55;;;;;;;16.38;7.80;;;;;;;7.55;44.68;99787.19;5001761;28;20030;-78
2024/01/09 10:04:29;;;;;;;15.65;7.30;;;;;;;7.72;44.24;99764.72;4994624;28;20029;-81
2024/01/09 10:06:56;;;;;;;14.82;7.82;;;;;;;8.06;43.16;99774.63;5016363;28;20025;-82
2024/01/09 10:09:23;;;;;;;14.90;7.20;;;;;;;8.10;43.27;99778.69;5016360;28;20037;-84
2024/01/09 10:11:52;;;;;;;18.02;7.93;;;;;;;6.82;44.50;99782.97;4997556;28;20423;-80
2024/01/09 10:14:18;;;;;;;14.35;7.03;;;;;;;7.45;44.31;99760.38;4995711;28;20034;-80
2024/01/09 10:16:51;;;;;;;15.80;7.47;;;;;;;8.45;42.66;99764.13;5001322;28;20170;-77
2024/01/09 10:19:17;;;;;;;15.90;7.43;;;;;;;8.20;43.11;99751.56;5012594;28;20029;-77
2024/01/09 10:21:42;;;;;;;14.82;7.60;;;;;;;7.90;43.17;99764.63;4993944;28;20395;-76
2024/01/09 10:24:08;;;;;;;14.73;7.20;;;;;;;7.83;43.14;99750.09;5011849;28;20083;-76
2024/01/09 10:26:34;;;;;;;16.17;7.60;;;;;;;7.59;42.74;99746.28;4997240;28;20021;-77
2024/01/09 10:28:59;;;;;;;16.50;7.65;;;;;;;7.53;43.48;99744.25;4993092;28;20033;-77
2024/01/09 10:31:24;;;;;;;16.42;7.78;;;;;;;7.47;43.22;99752.97;4993339;28;20026;-76
2024/01/09 10:33:50;;;;;;;13.50;7.00;;;;;;;7.80;43.15;99759.34;4996391;28;20377;-76
2024/01/09 10:36:15;;;;;;;15.40;7.20;;;;;;;8.61;42.07;99740.88;4993524;28;20034;-76
2024/01/09 10:38:40;;;;;;;13.25;6.75;;;;;;;8.53;42.59;99742.56;4988880;28;20018;-80
2024/01/09 10:41:21;;;;;;;17.08;7.03;;;;;;;9.08;41.74;99751.00;4997312;28;20083;-79
2024/01/09 10:43:49;;;;;;;14.75;7.43;;;;;;;9.91;40.98;99726.28;5000857;28;20360;-80
2024/01/09 10:46:15;;;;;;;12.63;6.50;;;;;;;9.67;41.55;99727.22;5001426;28;20028;-85
2024/01/09 10:48:41;;;;;;;14.82;7.72;;;;;;;10.80;40.24;99751.09;4994241;28;20331;-77
2024/01/09 10:51:08;;;;;;;19.02;8.32;;;;;;;10.34;39.03;99742.13;4994392;28;20022;-75
2024/01/09 10:53:35;;;;;;;15.48;9.52;;;;;;;10.67;39.63;99721.09;5007103;28;20021;-73
2024/01/09 10:56:03;;;;;;;16.90;8.65;;;;;;;11.62;38.73;99725.91;5012667;28;20022;-74
2024/01/09 10:58:28;;;;;;;17.55;9.20;;;;;;;11.43;38.57;99732.72;5008947;28;20093;-73
2024/01/09 11:00:53;;;;;;;16.17;8.52;;;;;;;10.71;38.86;99723.22;4992892;28;20033;-73
2024/01/09 11:03:19;;;;;;;14.90;8.02;;;;;;;12.11;38.63;99722.59;5009781;28;20080;-73
2024/01/09 11:05:48;;;;;;;12.18;7.25;;;;;;;12.81;37.63;99710.19;5010742;28;20076;-73
2024/01/09 11:08:17;;;;;;;14.18;8.10;;;;;;;13.08;37.07;99700.34;4988952;28;20054;-74
2024/01/09 11:10:44;;;;;;;13.18;7.93;;;;;;;12.41;36.65;99738.78;4984312;28;20041;-74
2024/01/09 11:13:11;;;;;;;15.80;9.80;;;;;;;13.76;35.89;99735.94;4995285;28;20029;-72
2024/01/09 11:15:46;;;;;;;14.75;8.55;;;;;;;12.91;36.04;99717.97;5013166;28;20048;-72